Impacts TAF Board
For situational awareness. Not to be used for flight planning purposes.
IDs:

KMLC - McAlester Rgnl, OK, US

Issued at 2320 UTC 05 Dec 2019
Updated at 0115 UTC 06 Dec 2019
Potential Impact None Slight Moderate High
Time0053Z 06/02Z 06/03Z 06/04Z 06/05Z 06/06Z 06/07Z 06/08Z 06/09Z 06/10Z 06/11Z 06/12Z 06/13Z 06/14Z>>
Type OBS PRVL PRVL PRVL PRVL PRVL
  [TEMP]  
PRVL
  [TEMP]  
PRVL
  [TEMP]  
PRVL PRVL PRVL PRVL PRVL PRVL
VIS 10 >6 >6 >6 >6 >6
  [5]  
>6
  [5]  
>6
  [5]  
>6 >6 >6 >6 >6 >6
CIG 110 -- -- -- -- --
  [25]  
--
  [25]  
--
  [25]  
15 15 15 15 15 15
Cover BKN FEW FEW FEW FEW FEW
  [BKN]  
FEW
  [BKN]  
FEW
  [BKN]  
BKN BKN BKN BKN BKN BKN
FltCat VFR VFR VFR VFR VFR VFR
  [MVFR]  
VFR
  [MVFR]  
VFR
  [MVFR]  
MVFR MVFR MVFR MVFR MVFR MVFR
WX -- -- -- -- -- --
  [-TSRA]  
--
  [-TSRA]  
--
  [-TSRA]  
-- -- -- -- -- --
WDir 180 170 170 170 170 170
[170]
170
[170]
170
[170]
350 350 350 350 350 350
WSpd 8 7 7 7 7 7
  [7]  
7
  [7]  
7
  [7]  
14 14 14 14 14 14
WGst 15 17 17 17 17 17
  [17]  
17
  [17]  
17
  [17]  
22 22 22 22 22 22
Raw TAF
KMLC 052320Z 0600/0624 17007G17KT P6SM FEW070 FEW110
  TEMPO 0606/0609 5SM -TSRA BKN025CB
  FM060900 35014G22KT P6SM BKN015
  FM062000 36014KT P6SM SCT020


Raw METAR
KMLC 060053Z AUTO 18008G15KT 150V210 10SM FEW080 BKN110 18/09 A2987 RMK AO2 SLP109 T01780094
KMLC 052353Z AUTO 16008KT 10SM FEW070 18/08 A2985 RMK AO2 SLP103 T01830083 10217 20183 53008
KMLC 052253Z AUTO 17007G17KT 10SM FEW070 FEW110 19/08 A2983 RMK AO2 SLP097 T01940078

METAR Board
Radar Display
Forecast Discussion
For situational awareness. Not to be used for flight planning purposes.